sensor_id;sensor_type;location;lat;lon;timestamp;P1;durP1;ratioP1;P2;durP2;ratioP2
9128;SDS011;4599;50.906;6.786;2023-12-04T00:00:52;14.00;;;8.43;;
9128;SDS011;4599;50.906;6.786;2023-12-04T00:04:53;13.77;;;7.30;;
9128;SDS011;4599;50.906;6.786;2023-12-04T00:08:55;12.83;;;8.17;;
9128;SDS011;4599;50.906;6.786;2023-12-04T00:12:58;13.70;;;8.13;;
9128;SDS011;4599;50.906;6.786;2023-12-04T00:16:59;12.13;;;7.73;;
9128;SDS011;4599;50.906;6.786;2023-12-04T00:21:01;14.47;;;7.97;;
9128;SDS011;4599;50.906;6.786;2023-12-04T00:25:03;10.17;;;6.37;;
9128;SDS011;4599;50.906;6.786;2023-12-04T00:29:06;10.70;;;6.77;;
9128;SDS011;4599;50.906;6.786;2023-12-04T00:33:09;13.27;;;8.00;;
9128;SDS011;4599;50.906;6.786;2023-12-04T00:37:11;12.60;;;7.90;;
9128;SDS011;4599;50.906;6.786;2023-12-04T00:41:13;14.17;;;8.13;;
9128;SDS011;4599;50.906;6.786;2023-12-04T00:45:15;13.23;;;8.00;;
9128;SDS011;4599;50.906;6.786;2023-12-04T00:49:17;11.77;;;7.77;;
9128;SDS011;4599;50.906;6.786;2023-12-04T00:53:19;9.57;;;5.97;;
9128;SDS011;4599;50.906;6.786;2023-12-04T00:57:20;10.10;;;6.67;;
9128;SDS011;4599;50.906;6.786;2023-12-04T01:01:23;12.67;;;6.90;;
9128;SDS011;4599;50.906;6.786;2023-12-04T01:05:25;13.00;;;6.50;;
9128;SDS011;4599;50.906;6.786;2023-12-04T01:09:26;11.53;;;7.17;;
9128;SDS011;4599;50.906;6.786;2023-12-04T01:13:28;13.17;;;7.90;;
9128;SDS011;4599;50.906;6.786;2023-12-04T01:17:31;11.50;;;7.00;;
9128;SDS011;4599;50.906;6.786;2023-12-04T01:21:33;8.67;;;6.20;;
9128;SDS011;4599;50.906;6.786;2023-12-04T01:25:34;9.87;;;6.23;;
9128;SDS011;4599;50.906;6.786;2023-12-04T01:29:36;10.87;;;7.07;;
9128;SDS011;4599;50.906;6.786;2023-12-04T01:33:38;10.30;;;6.63;;
9128;SDS011;4599;50.906;6.786;2023-12-04T01:37:40;10.07;;;5.97;;
9128;SDS011;4599;50.906;6.786;2023-12-04T01:41:42;10.60;;;5.60;;
9128;SDS011;4599;50.906;6.786;2023-12-04T01:45:44;10.20;;;6.60;;
9128;SDS011;4599;50.906;6.786;2023-12-04T01:49:47;10.37;;;6.53;;
9128;SDS011;4599;50.906;6.786;2023-12-04T01:53:48;11.83;;;7.40;;
9128;SDS011;4599;50.906;6.786;2023-12-04T01:57:51;10.30;;;6.80;;
9128;SDS011;4599;50.906;6.786;2023-12-04T02:01:53;11.17;;;6.73;;
9128;SDS011;4599;50.906;6.786;2023-12-04T02:05:56;9.57;;;6.43;;
9128;SDS011;4599;50.906;6.786;2023-12-04T02:10:00;10.57;;;6.97;;
9128;SDS011;4599;50.906;6.786;2023-12-04T02:14:02;10.50;;;6.57;;
9128;SDS011;4599;50.906;6.786;2023-12-04T02:18:03;9.07;;;6.70;;
9128;SDS011;4599;50.906;6.786;2023-12-04T02:22:07;11.90;;;6.03;;
9128;SDS011;4599;50.906;6.786;2023-12-04T02:26:12;11.90;;;6.90;;
9128;SDS011;4599;50.906;6.786;2023-12-04T02:30:18;8.60;;;4.87;;
9128;SDS011;4599;50.906;6.786;2023-12-04T02:34:22;10.57;;;6.03;;
9128;SDS011;4599;50.906;6.786;2023-12-04T02:38:25;9.60;;;6.73;;
9128;SDS011;4599;50.906;6.786;2023-12-04T02:42:29;14.07;;;7.07;;
9128;SDS011;4599;50.906;6.786;2023-12-04T02:46:30;8.53;;;5.60;;
9128;SDS011;4599;50.906;6.786;2023-12-04T02:50:32;10.83;;;7.33;;
9128;SDS011;4599;50.906;6.786;2023-12-04T02:54:33;13.50;;;7.50;;
9128;SDS011;4599;50.906;6.786;2023-12-04T02:58:36;11.33;;;7.07;;
9128;SDS011;4599;50.906;6.786;2023-12-04T03:02:38;10.07;;;6.77;;
9128;SDS011;4599;50.906;6.786;2023-12-04T03:06:39;6.03;;;4.13;;
9128;SDS011;4599;50.906;6.786;2023-12-04T03:10:41;10.87;;;6.80;;
9128;SDS011;4599;50.906;6.786;2023-12-04T03:14:44;9.50;;;7.07;;
9128;SDS011;4599;50.906;6.786;2023-12-04T03:18:45;9.20;;;5.53;;
9128;SDS011;4599;50.906;6.786;2023-12-04T03:22:47;10.73;;;6.40;;
9128;SDS011;4599;50.906;6.786;2023-12-04T03:26:48;10.80;;;6.50;;
9128;SDS011;4599;50.906;6.786;2023-12-04T03:30:51;9.10;;;5.67;;
9128;SDS011;4599;50.906;6.786;2023-12-04T03:34:53;11.00;;;6.73;;
9128;SDS011;4599;50.906;6.786;2023-12-04T03:38:54;10.10;;;6.53;;
9128;SDS011;4599;50.906;6.786;2023-12-04T03:42:56;11.23;;;6.50;;
9128;SDS011;4599;50.906;6.786;2023-12-04T03:46:59;11.07;;;7.03;;
9128;SDS011;4599;50.906;6.786;2023-12-04T03:51:00;9.70;;;6.80;;
9128;SDS011;4599;50.906;6.786;2023-12-04T03:55:02;9.97;;;6.93;;
9128;SDS011;4599;50.906;6.786;2023-12-04T03:59:04;10.73;;;7.43;;
9128;SDS011;4599;50.906;6.786;2023-12-04T04:03:08;11.70;;;7.47;;
9128;SDS011;4599;50.906;6.786;2023-12-04T04:07:10;11.13;;;7.10;;
9128;SDS011;4599;50.906;6.786;2023-12-04T04:11:12;9.57;;;6.50;;
9128;SDS011;4599;50.906;6.786;2023-12-04T04:15:14;10.10;;;6.43;;
9128;SDS011;4599;50.906;6.786;2023-12-04T04:19:17;6.77;;;5.27;;
9128;SDS011;4599;50.906;6.786;2023-12-04T04:23:19;10.67;;;7.00;;
9128;SDS011;4599;50.906;6.786;2023-12-04T04:27:20;10.40;;;6.97;;
9128;SDS011;4599;50.906;6.786;2023-12-04T04:31:22;8.83;;;5.33;;
9128;SDS011;4599;50.906;6.786;2023-12-04T04:35:25;11.37;;;6.67;;
9128;SDS011;4599;50.906;6.786;2023-12-04T04:39:26;10.43;;;6.13;;
9128;SDS011;4599;50.906;6.786;2023-12-04T04:43:28;11.90;;;7.43;;
9128;SDS011;4599;50.906;6.786;2023-12-04T04:47:29;9.73;;;6.70;;
9128;SDS011;4599;50.906;6.786;2023-12-04T04:51:32;9.93;;;6.47;;
9128;SDS011;4599;50.906;6.786;2023-12-04T04:55:34;9.40;;;5.53;;
9128;SDS011;4599;50.906;6.786;2023-12-04T04:59:49;9.20;;;5.70;;
9128;SDS011;4599;50.906;6.786;2023-12-04T05:08:49;11.30;;;7.70;;
9128;SDS011;4599;50.906;6.786;2023-12-04T05:12:50;10.17;;;6.83;;
9128;SDS011;4599;50.906;6.786;2023-12-04T05:16:52;12.03;;;7.63;;
9128;SDS011;4599;50.906;6.786;2023-12-04T05:20:53;11.13;;;7.63;;
9128;SDS011;4599;50.906;6.786;2023-12-04T05:24:56;16.07;;;8.40;;
9128;SDS011;4599;50.906;6.786;2023-12-04T05:28:59;13.50;;;7.57;;
9128;SDS011;4599;50.906;6.786;2023-12-04T05:33:00;12.53;;;7.87;;
9128;SDS011;4599;50.906;6.786;2023-12-04T05:37:03;12.63;;;6.87;;
9128;SDS011;4599;50.906;6.786;2023-12-04T05:41:06;12.97;;;7.43;;
9128;SDS011;4599;50.906;6.786;2023-12-04T05:45:08;13.37;;;7.83;;
9128;SDS011;4599;50.906;6.786;2023-12-04T05:49:10;8.60;;;5.73;;
9128;SDS011;4599;50.906;6.786;2023-12-04T05:53:11;13.57;;;8.47;;
9128;SDS011;4599;50.906;6.786;2023-12-04T05:57:15;12.73;;;8.77;;
9128;SDS011;4599;50.906;6.786;2023-12-04T06:01:16;13.40;;;8.37;;
9128;SDS011;4599;50.906;6.786;2023-12-04T06:05:18;14.57;;;8.97;;
9128;SDS011;4599;50.906;6.786;2023-12-04T06:09:20;15.57;;;8.77;;
9128;SDS011;4599;50.906;6.786;2023-12-04T06:13:22;12.37;;;7.60;;
9128;SDS011;4599;50.906;6.786;2023-12-04T06:17:24;11.93;;;7.47;;
9128;SDS011;4599;50.906;6.786;2023-12-04T06:21:26;11.97;;;7.60;;
9128;SDS011;4599;50.906;6.786;2023-12-04T06:25:27;12.53;;;7.30;;
9128;SDS011;4599;50.906;6.786;2023-12-04T06:29:32;12.20;;;8.00;;
9128;SDS011;4599;50.906;6.786;2023-12-04T06:33:34;11.57;;;7.87;;
9128;SDS011;4599;50.906;6.786;2023-12-04T06:37:36;13.93;;;8.33;;
9128;SDS011;4599;50.906;6.786;2023-12-04T06:41:39;13.33;;;8.30;;
9128;SDS011;4599;50.906;6.786;2023-12-04T06:45:43;12.47;;;7.90;;
9128;SDS011;4599;50.906;6.786;2023-12-04T06:49:45;12.20;;;8.20;;
9128;SDS011;4599;50.906;6.786;2023-12-04T06:53:46;7.80;;;5.53;;
9128;SDS011;4599;50.906;6.786;2023-12-04T06:57:48;8.13;;;4.80;;
9128;SDS011;4599;50.906;6.786;2023-12-04T07:01:53;15.97;;;8.23;;
9128;SDS011;4599;50.906;6.786;2023-12-04T07:05:55;13.17;;;8.03;;
9128;SDS011;4599;50.906;6.786;2023-12-04T07:09:56;11.40;;;7.90;;
9128;SDS011;4599;50.906;6.786;2023-12-04T07:13:58;8.07;;;5.27;;
9128;SDS011;4599;50.906;6.786;2023-12-04T07:18:03;12.40;;;7.13;;
9128;SDS011;4599;50.906;6.786;2023-12-04T07:22:05;12.20;;;7.10;;
9128;SDS011;4599;50.906;6.786;2023-12-04T07:26:07;11.17;;;6.97;;
9128;SDS011;4599;50.906;6.786;2023-12-04T07:30:08;13.90;;;7.90;;
9128;SDS011;4599;50.906;6.786;2023-12-04T07:34:13;12.13;;;7.17;;
9128;SDS011;4599;50.906;6.786;2023-12-04T07:38:15;10.30;;;5.93;;
9128;SDS011;4599;50.906;6.786;2023-12-04T07:42:17;9.97;;;7.27;;
9128;SDS011;4599;50.906;6.786;2023-12-04T07:46:18;9.60;;;6.57;;
9128;SDS011;4599;50.906;6.786;2023-12-04T07:50:21;9.40;;;6.60;;
9128;SDS011;4599;50.906;6.786;2023-12-04T07:54:22;8.27;;;5.30;;
9128;SDS011;4599;50.906;6.786;2023-12-04T07:58:24;9.43;;;6.30;;
9128;SDS011;4599;50.906;6.786;2023-12-04T08:02:25;9.07;;;6.70;;
9128;SDS011;4599;50.906;6.786;2023-12-04T08:06:29;8.60;;;5.53;;
9128;SDS011;4599;50.906;6.786;2023-12-04T08:10:31;9.93;;;7.00;;
9128;SDS011;4599;50.906;6.786;2023-12-04T08:14:33;10.13;;;6.57;;
9128;SDS011;4599;50.906;6.786;2023-12-04T08:18:35;8.10;;;5.63;;
9128;SDS011;4599;50.906;6.786;2023-12-04T08:22:38;9.80;;;6.40;;
9128;SDS011;4599;50.906;6.786;2023-12-04T08:26:40;9.67;;;7.00;;
9128;SDS011;4599;50.906;6.786;2023-12-04T08:30:41;12.17;;;7.60;;
9128;SDS011;4599;50.906;6.786;2023-12-04T08:34:43;9.87;;;6.57;;
9128;SDS011;4599;50.906;6.786;2023-12-04T08:38:46;11.30;;;6.07;;
9128;SDS011;4599;50.906;6.786;2023-12-04T08:42:48;11.03;;;7.13;;
9128;SDS011;4599;50.906;6.786;2023-12-04T08:46:49;11.33;;;6.37;;
9128;SDS011;4599;50.906;6.786;2023-12-04T08:50:51;9.70;;;6.00;;
9128;SDS011;4599;50.906;6.786;2023-12-04T08:54:54;8.50;;;5.97;;
9128;SDS011;4599;50.906;6.786;2023-12-04T08:58:56;8.10;;;5.43;;
9128;SDS011;4599;50.906;6.786;2023-12-04T09:02:58;9.83;;;6.67;;
9128;SDS011;4599;50.906;6.786;2023-12-04T09:07:11;9.07;;;5.97;;
9128;SDS011;4599;50.906;6.786;2023-12-04T09:11:33;13.07;;;7.97;;
9128;SDS011;4599;50.906;6.786;2023-12-04T09:15:35;11.70;;;7.23;;
9128;SDS011;4599;50.906;6.786;2023-12-04T09:19:37;11.00;;;6.40;;
9128;SDS011;4599;50.906;6.786;2023-12-04T09:23:39;13.93;;;7.03;;
9128;SDS011;4599;50.906;6.786;2023-12-04T09:27:42;8.67;;;5.97;;
9128;SDS011;4599;50.906;6.786;2023-12-04T09:31:44;7.27;;;5.00;;
9128;SDS011;4599;50.906;6.786;2023-12-04T09:35:46;10.33;;;6.33;;
9128;SDS011;4599;50.906;6.786;2023-12-04T09:39:47;10.40;;;6.60;;
9128;SDS011;4599;50.906;6.786;2023-12-04T09:43:50;9.70;;;5.83;;
9128;SDS011;4599;50.906;6.786;2023-12-04T09:47:52;10.30;;;6.07;;
9128;SDS011;4599;50.906;6.786;2023-12-04T09:51:56;9.87;;;6.60;;
9128;SDS011;4599;50.906;6.786;2023-12-04T09:56:00;8.70;;;4.83;;
9128;SDS011;4599;50.906;6.786;2023-12-04T10:00:06;9.00;;;5.70;;
9128;SDS011;4599;50.906;6.786;2023-12-04T10:04:10;10.57;;;7.30;;
9128;SDS011;4599;50.906;6.786;2023-12-04T10:08:11;11.90;;;7.43;;
9128;SDS011;4599;50.906;6.786;2023-12-04T10:12:13;12.77;;;6.90;;
9128;SDS011;4599;50.906;6.786;2023-12-04T10:16:34;9.83;;;6.57;;
9128;SDS011;4599;50.906;6.786;2023-12-04T10:20:37;6.63;;;5.13;;
9128;SDS011;4599;50.906;6.786;2023-12-04T10:24:52;9.73;;;6.30;;
9128;SDS011;4599;50.906;6.786;2023-12-04T10:29:00;12.33;;;5.47;;
9128;SDS011;4599;50.906;6.786;2023-12-04T10:33:05;10.40;;;6.20;;
9128;SDS011;4599;50.906;6.786;2023-12-04T10:37:08;10.87;;;6.63;;
9128;SDS011;4599;50.906;6.786;2023-12-04T10:41:14;10.60;;;6.10;;
9128;SDS011;4599;50.906;6.786;2023-12-04T10:45:16;8.00;;;5.27;;
9128;SDS011;4599;50.906;6.786;2023-12-04T10:49:19;8.40;;;6.67;;
9128;SDS011;4599;50.906;6.786;2023-12-04T10:53:21;13.13;;;7.07;;
9128;SDS011;4599;50.906;6.786;2023-12-04T10:57:25;13.23;;;6.53;;
9128;SDS011;4599;50.906;6.786;2023-12-04T11:01:28;11.43;;;6.53;;
9128;SDS011;4599;50.906;6.786;2023-12-04T11:05:35;11.97;;;5.40;;
9128;SDS011;4599;50.906;6.786;2023-12-04T11:09:39;10.87;;;6.47;;
9128;SDS011;4599;50.906;6.786;2023-12-04T11:13:42;11.47;;;7.57;;
9128;SDS011;4599;50.906;6.786;2023-12-04T11:17:47;10.90;;;6.97;;
9128;SDS011;4599;50.906;6.786;2023-12-04T11:21:53;15.17;;;7.53;;
9128;SDS011;4599;50.906;6.786;2023-12-04T11:25:59;11.53;;;7.73;;
9128;SDS011;4599;50.906;6.786;2023-12-04T11:30:02;11.17;;;7.40;;
9128;SDS011;4599;50.906;6.786;2023-12-04T11:34:07;13.10;;;7.80;;
9128;SDS011;4599;50.906;6.786;2023-12-04T11:38:13;10.97;;;7.60;;
9128;SDS011;4599;50.906;6.786;2023-12-04T11:42:18;13.00;;;7.73;;
9128;SDS011;4599;50.906;6.786;2023-12-04T11:46:20;11.00;;;6.13;;
9128;SDS011;4599;50.906;6.786;2023-12-04T11:50:24;13.33;;;8.00;;
9128;SDS011;4599;50.906;6.786;2023-12-04T11:54:28;14.77;;;9.20;;
9128;SDS011;4599;50.906;6.786;2023-12-04T11:58:30;14.03;;;8.07;;
9128;SDS011;4599;50.906;6.786;2023-12-04T12:02:31;13.57;;;7.73;;
9128;SDS011;4599;50.906;6.786;2023-12-04T12:06:53;12.83;;;7.97;;
9128;SDS011;4599;50.906;6.786;2023-12-04T12:10:57;11.77;;;7.77;;
9128;SDS011;4599;50.906;6.786;2023-12-04T12:14:59;9.80;;;6.20;;
9128;SDS011;4599;50.906;6.786;2023-12-04T12:19:01;12.37;;;6.97;;
9128;SDS011;4599;50.906;6.786;2023-12-04T12:23:03;11.00;;;7.60;;
9128;SDS011;4599;50.906;6.786;2023-12-04T12:27:06;11.07;;;6.80;;
9128;SDS011;4599;50.906;6.786;2023-12-04T12:31:10;8.40;;;5.60;;
9128;SDS011;4599;50.906;6.786;2023-12-04T12:35:12;12.07;;;5.80;;
9128;SDS011;4599;50.906;6.786;2023-12-04T12:39:13;10.23;;;6.17;;
9128;SDS011;4599;50.906;6.786;2023-12-04T12:43:17;9.50;;;6.63;;
9128;SDS011;4599;50.906;6.786;2023-12-04T12:47:21;10.87;;;6.77;;
9128;SDS011;4599;50.906;6.786;2023-12-04T12:51:24;11.03;;;6.30;;
9128;SDS011;4599;50.906;6.786;2023-12-04T12:55:27;9.70;;;6.10;;
9128;SDS011;4599;50.906;6.786;2023-12-04T12:59:30;12.50;;;7.73;;
9128;SDS011;4599;50.906;6.786;2023-12-04T13:03:31;7.77;;;5.33;;
9128;SDS011;4599;50.906;6.786;2023-12-04T13:07:33;8.93;;;6.40;;
9128;SDS011;4599;50.906;6.786;2023-12-04T13:11:35;9.97;;;6.80;;
9128;SDS011;4599;50.906;6.786;2023-12-04T13:15:38;11.60;;;6.93;;
9128;SDS011;4599;50.906;6.786;2023-12-04T13:19:39;8.07;;;4.37;;
9128;SDS011;4599;50.906;6.786;2023-12-04T13:23:41;6.47;;;4.83;;
9128;SDS011;4599;50.906;6.786;2023-12-04T13:27:43;8.47;;;5.83;;
9128;SDS011;4599;50.906;6.786;2023-12-04T13:31:45;9.80;;;6.60;;
9128;SDS011;4599;50.906;6.786;2023-12-04T13:35:47;10.73;;;6.50;;
9128;SDS011;4599;50.906;6.786;2023-12-04T13:39:51;9.47;;;6.60;;
9128;SDS011;4599;50.906;6.786;2023-12-04T13:44:28;8.20;;;5.10;;
9128;SDS011;4599;50.906;6.786;2023-12-04T13:57:59;9.40;;;5.83;;
9128;SDS011;4599;50.906;6.786;2023-12-04T14:02:04;9.53;;;5.43;;
9128;SDS011;4599;50.906;6.786;2023-12-04T14:06:07;8.70;;;5.87;;
9128;SDS011;4599;50.906;6.786;2023-12-04T14:10:11;9.40;;;6.37;;
9128;SDS011;4599;50.906;6.786;2023-12-04T14:14:12;9.00;;;5.43;;
9128;SDS011;4599;50.906;6.786;2023-12-04T14:18:14;6.83;;;5.13;;
9128;SDS011;4599;50.906;6.786;2023-12-04T14:22:16;8.20;;;5.93;;
9128;SDS011;4599;50.906;6.786;2023-12-04T14:26:19;8.37;;;5.57;;
9128;SDS011;4599;50.906;6.786;2023-12-04T14:30:20;8.30;;;5.80;;
9128;SDS011;4599;50.906;6.786;2023-12-04T14:34:22;11.33;;;6.20;;
9128;SDS011;4599;50.906;6.786;2023-12-04T14:38:24;6.93;;;5.47;;
9128;SDS011;4599;50.906;6.786;2023-12-04T14:42:27;5.27;;;4.10;;
9128;SDS011;4599;50.906;6.786;2023-12-04T14:46:29;6.23;;;4.83;;
9128;SDS011;4599;50.906;6.786;2023-12-04T14:50:30;5.43;;;4.47;;
9128;SDS011;4599;50.906;6.786;2023-12-04T14:54:32;7.43;;;5.23;;
9128;SDS011;4599;50.906;6.786;2023-12-04T14:58:35;8.67;;;5.50;;
9128;SDS011;4599;50.906;6.786;2023-12-04T15:02:36;7.80;;;4.73;;
9128;SDS011;4599;50.906;6.786;2023-12-04T15:06:41;8.30;;;5.33;;
9128;SDS011;4599;50.906;6.786;2023-12-04T15:10:43;5.57;;;4.77;;
9128;SDS011;4599;50.906;6.786;2023-12-04T15:14:45;7.50;;;5.50;;
9128;SDS011;4599;50.906;6.786;2023-12-04T15:18:48;7.20;;;5.30;;
9128;SDS011;4599;50.906;6.786;2023-12-04T15:22:50;8.50;;;5.67;;
9128;SDS011;4599;50.906;6.786;2023-12-04T15:26:51;8.03;;;5.30;;
9128;SDS011;4599;50.906;6.786;2023-12-04T15:30:54;7.97;;;6.00;;
9128;SDS011;4599;50.906;6.786;2023-12-04T15:34:56;8.47;;;5.97;;
9128;SDS011;4599;50.906;6.786;2023-12-04T15:38:59;7.43;;;4.83;;
9128;SDS011;4599;50.906;6.786;2023-12-04T15:43:01;7.77;;;5.63;;
9128;SDS011;4599;50.906;6.786;2023-12-04T15:47:04;5.70;;;4.63;;
9128;SDS011;4599;50.906;6.786;2023-12-04T15:51:06;6.43;;;4.90;;
9128;SDS011;4599;50.906;6.786;2023-12-04T15:55:08;9.83;;;6.50;;
9128;SDS011;4599;50.906;6.786;2023-12-04T15:59:10;8.10;;;5.67;;
9128;SDS011;4599;50.906;6.786;2023-12-04T16:03:13;8.77;;;6.27;;
9128;SDS011;4599;50.906;6.786;2023-12-04T16:07:15;7.53;;;5.77;;
9128;SDS011;4599;50.906;6.786;2023-12-04T16:11:17;11.10;;;6.67;;
9128;SDS011;4599;50.906;6.786;2023-12-04T16:15:19;8.93;;;6.30;;
9128;SDS011;4599;50.906;6.786;2023-12-04T16:19:22;6.43;;;4.53;;
9128;SDS011;4599;50.906;6.786;2023-12-04T16:23:23;8.03;;;6.00;;
9128;SDS011;4599;50.906;6.786;2023-12-04T16:27:25;6.10;;;4.83;;
9128;SDS011;4599;50.906;6.786;2023-12-04T16:31:26;8.63;;;5.97;;
9128;SDS011;4599;50.906;6.786;2023-12-04T16:35:30;9.73;;;7.73;;
9128;SDS011;4599;50.906;6.786;2023-12-04T16:39:32;7.50;;;5.43;;
9128;SDS011;4599;50.906;6.786;2023-12-04T16:43:33;12.37;;;6.23;;
9128;SDS011;4599;50.906;6.786;2023-12-04T16:47:35;13.67;;;8.73;;
9128;SDS011;4599;50.906;6.786;2023-12-04T16:51:38;12.63;;;8.53;;
9128;SDS011;4599;50.906;6.786;2023-12-04T16:55:40;15.10;;;11.07;;
9128;SDS011;4599;50.906;6.786;2023-12-04T16:59:42;14.50;;;10.87;;
9128;SDS011;4599;50.906;6.786;2023-12-04T17:03:44;7.63;;;5.27;;
9128;SDS011;4599;50.906;6.786;2023-12-04T17:07:47;7.83;;;5.90;;
9128;SDS011;4599;50.906;6.786;2023-12-04T17:11:49;8.47;;;6.33;;
9128;SDS011;4599;50.906;6.786;2023-12-04T17:15:51;8.97;;;6.77;;
9128;SDS011;4599;50.906;6.786;2023-12-04T17:19:53;7.73;;;5.80;;
9128;SDS011;4599;50.906;6.786;2023-12-04T17:23:56;8.20;;;6.40;;
9128;SDS011;4599;50.906;6.786;2023-12-04T17:27:57;10.10;;;7.90;;
9128;SDS011;4599;50.906;6.786;2023-12-04T17:31:59;7.60;;;5.27;;
9128;SDS011;4599;50.906;6.786;2023-12-04T17:36:01;9.47;;;6.47;;
9128;SDS011;4599;50.906;6.786;2023-12-04T17:40:04;9.13;;;7.63;;
9128;SDS011;4599;50.906;6.786;2023-12-04T17:44:06;8.83;;;6.77;;
9128;SDS011;4599;50.906;6.786;2023-12-04T17:48:08;9.77;;;7.27;;
9128;SDS011;4599;50.906;6.786;2023-12-04T17:52:10;13.10;;;9.40;;
9128;SDS011;4599;50.906;6.786;2023-12-04T17:56:12;13.17;;;8.37;;
9128;SDS011;4599;50.906;6.786;2023-12-04T18:00:14;11.50;;;8.50;;
9128;SDS011;4599;50.906;6.786;2023-12-04T18:04:16;10.80;;;7.67;;
9128;SDS011;4599;50.906;6.786;2023-12-04T18:08:18;10.93;;;8.17;;
9128;SDS011;4599;50.906;6.786;2023-12-04T18:12:22;12.37;;;9.33;;
9128;SDS011;4599;50.906;6.786;2023-12-04T18:16:24;9.33;;;7.13;;
9128;SDS011;4599;50.906;6.786;2023-12-04T18:20:28;13.07;;;9.30;;
9128;SDS011;4599;50.906;6.786;2023-12-04T18:24:29;12.20;;;8.20;;
9128;SDS011;4599;50.906;6.786;2023-12-04T18:28:32;14.83;;;8.93;;
9128;SDS011;4599;50.906;6.786;2023-12-04T18:32:34;14.50;;;8.17;;
9128;SDS011;4599;50.906;6.786;2023-12-04T18:36:38;11.60;;;7.97;;
9128;SDS011;4599;50.906;6.786;2023-12-04T18:40:43;15.40;;;10.20;;
9128;SDS011;4599;50.906;6.786;2023-12-04T18:44:46;11.17;;;8.73;;
9128;SDS011;4599;50.906;6.786;2023-12-04T18:48:48;13.63;;;9.67;;
9128;SDS011;4599;50.906;6.786;2023-12-04T18:52:51;15.93;;;8.03;;
9128;SDS011;4599;50.906;6.786;2023-12-04T18:56:53;10.67;;;8.30;;
9128;SDS011;4599;50.906;6.786;2023-12-04T19:00:56;12.50;;;8.93;;
9128;SDS011;4599;50.906;6.786;2023-12-04T19:04:58;15.97;;;9.20;;
9128;SDS011;4599;50.906;6.786;2023-12-04T19:09:01;10.97;;;7.80;;
9128;SDS011;4599;50.906;6.786;2023-12-04T19:13:03;10.07;;;8.17;;
9128;SDS011;4599;50.906;6.786;2023-12-04T19:17:06;11.83;;;8.83;;
9128;SDS011;4599;50.906;6.786;2023-12-04T19:21:08;12.40;;;9.20;;
9128;SDS011;4599;50.906;6.786;2023-12-04T19:25:10;9.23;;;6.03;;
9128;SDS011;4599;50.906;6.786;2023-12-04T19:29:11;12.90;;;8.23;;
9128;SDS011;4599;50.906;6.786;2023-12-04T19:33:23;13.93;;;9.37;;
9128;SDS011;4599;50.906;6.786;2023-12-04T19:37:30;16.33;;;10.97;;
9128;SDS011;4599;50.906;6.786;2023-12-04T19:41:32;14.47;;;10.43;;
9128;SDS011;4599;50.906;6.786;2023-12-04T19:45:34;13.63;;;9.00;;
9128;SDS011;4599;50.906;6.786;2023-12-04T19:49:41;11.27;;;9.20;;
9128;SDS011;4599;50.906;6.786;2023-12-04T19:53:43;15.90;;;11.17;;
9128;SDS011;4599;50.906;6.786;2023-12-04T19:57:45;15.37;;;10.47;;
9128;SDS011;4599;50.906;6.786;2023-12-04T20:01:46;16.77;;;11.03;;
9128;SDS011;4599;50.906;6.786;2023-12-04T20:05:49;14.83;;;10.03;;
9128;SDS011;4599;50.906;6.786;2023-12-04T20:09:51;12.80;;;10.23;;
9128;SDS011;4599;50.906;6.786;2023-12-04T20:13:52;12.73;;;8.87;;
9128;SDS011;4599;50.906;6.786;2023-12-04T20:17:55;13.43;;;9.67;;
9128;SDS011;4599;50.906;6.786;2023-12-04T20:21:58;11.57;;;8.77;;
9128;SDS011;4599;50.906;6.786;2023-12-04T20:26:00;13.97;;;10.20;;
9128;SDS011;4599;50.906;6.786;2023-12-04T20:30:02;14.77;;;10.80;;
9128;SDS011;4599;50.906;6.786;2023-12-04T20:34:04;16.10;;;10.47;;
9128;SDS011;4599;50.906;6.786;2023-12-04T20:38:08;14.63;;;9.00;;
9128;SDS011;4599;50.906;6.786;2023-12-04T20:42:09;13.23;;;9.27;;
9128;SDS011;4599;50.906;6.786;2023-12-04T20:46:11;15.03;;;10.63;;
9128;SDS011;4599;50.906;6.786;2023-12-04T20:50:12;17.57;;;12.13;;
9128;SDS011;4599;50.906;6.786;2023-12-04T20:54:15;16.60;;;11.80;;
9128;SDS011;4599;50.906;6.786;2023-12-04T20:58:18;16.10;;;11.90;;
9128;SDS011;4599;50.906;6.786;2023-12-04T21:02:19;18.33;;;12.83;;
9128;SDS011;4599;50.906;6.786;2023-12-04T21:06:21;20.43;;;12.93;;
9128;SDS011;4599;50.906;6.786;2023-12-04T21:10:24;19.03;;;12.00;;
9128;SDS011;4599;50.906;6.786;2023-12-04T21:14:25;15.53;;;10.53;;
9128;SDS011;4599;50.906;6.786;2023-12-04T21:18:27;16.20;;;11.13;;
9128;SDS011;4599;50.906;6.786;2023-12-04T21:22:29;13.73;;;8.83;;
9128;SDS011;4599;50.906;6.786;2023-12-04T21:26:32;16.43;;;11.50;;
9128;SDS011;4599;50.906;6.786;2023-12-04T21:30:34;17.93;;;11.97;;
9128;SDS011;4599;50.906;6.786;2023-12-04T21:34:35;16.57;;;11.20;;
9128;SDS011;4599;50.906;6.786;2023-12-04T21:38:37;16.67;;;11.13;;
9128;SDS011;4599;50.906;6.786;2023-12-04T21:42:40;15.43;;;10.83;;
9128;SDS011;4599;50.906;6.786;2023-12-04T21:46:42;15.97;;;9.47;;
9128;SDS011;4599;50.906;6.786;2023-12-04T21:50:43;14.87;;;10.60;;
9128;SDS011;4599;50.906;6.786;2023-12-04T21:54:45;12.90;;;8.60;;
9128;SDS011;4599;50.906;6.786;2023-12-04T21:58:48;14.93;;;9.90;;
9128;SDS011;4599;50.906;6.786;2023-12-04T22:02:50;17.70;;;12.23;;
9128;SDS011;4599;50.906;6.786;2023-12-04T22:06:51;15.20;;;11.87;;
9128;SDS011;4599;50.906;6.786;2023-12-04T22:10:53;17.37;;;12.20;;
9128;SDS011;4599;50.906;6.786;2023-12-04T22:14:56;13.53;;;10.33;;
9128;SDS011;4599;50.906;6.786;2023-12-04T22:18:58;13.07;;;9.87;;
9128;SDS011;4599;50.906;6.786;2023-12-04T22:23:00;14.00;;;10.03;;
9128;SDS011;4599;50.906;6.786;2023-12-04T22:27:02;14.97;;;10.63;;
9128;SDS011;4599;50.906;6.786;2023-12-04T22:31:05;15.53;;;10.67;;
9128;SDS011;4599;50.906;6.786;2023-12-04T22:35:07;18.73;;;12.43;;
9128;SDS011;4599;50.906;6.786;2023-12-04T22:39:09;19.30;;;12.67;;
9128;SDS011;4599;50.906;6.786;2023-12-04T22:43:11;15.73;;;12.17;;
9128;SDS011;4599;50.906;6.786;2023-12-04T22:47:14;19.20;;;12.83;;
9128;SDS011;4599;50.906;6.786;2023-12-04T22:51:15;16.73;;;12.47;;
9128;SDS011;4599;50.906;6.786;2023-12-04T22:55:17;17.57;;;10.93;;
9128;SDS011;4599;50.906;6.786;2023-12-04T22:59:18;17.87;;;12.77;;
9128;SDS011;4599;50.906;6.786;2023-12-04T23:03:21;18.23;;;13.23;;
9128;SDS011;4599;50.906;6.786;2023-12-04T23:07:23;19.60;;;13.17;;
9128;SDS011;4599;50.906;6.786;2023-12-04T23:11:24;17.67;;;12.13;;
9128;SDS011;4599;50.906;6.786;2023-12-04T23:15:27;18.60;;;13.73;;
9128;SDS011;4599;50.906;6.786;2023-12-04T23:19:30;18.60;;;13.30;;
9128;SDS011;4599;50.906;6.786;2023-12-04T23:23:32;18.03;;;12.93;;
9128;SDS011;4599;50.906;6.786;2023-12-04T23:27:34;14.97;;;9.57;;
9128;SDS011;4599;50.906;6.786;2023-12-04T23:31:38;16.33;;;12.17;;
9128;SDS011;4599;50.906;6.786;2023-12-04T23:35:41;18.03;;;11.80;;
9128;SDS011;4599;50.906;6.786;2023-12-04T23:39:43;17.03;;;11.67;;
9128;SDS011;4599;50.906;6.786;2023-12-04T23:43:44;17.23;;;12.60;;
9128;SDS011;4599;50.906;6.786;2023-12-04T23:47:46;19.77;;;11.83;;
9128;SDS011;4599;50.906;6.786;2023-12-04T23:51:49;18.63;;;12.80;;
9128;SDS011;4599;50.906;6.786;2023-12-04T23:55:51;17.60;;;12.13;;
9128;SDS011;4599;50.906;6.786;2023-12-04T23:59:53;19.33;;;13.53;;
